createdAt,value
2022-10-11T00:01:47.276Z,96594.03
2022-10-11T00:04:14.095Z,96593.34
2022-10-11T00:06:43.494Z,96598.00
2022-10-11T00:09:16.151Z,96599.84
2022-10-11T00:11:42.972Z,96597.31
2022-10-11T00:14:09.693Z,96593.66
2022-10-11T00:16:38.667Z,96605.28
2022-10-11T00:19:05.313Z,96597.63
2022-10-11T00:21:32.126Z,96597.63
2022-10-11T00:23:58.834Z,96599.47
2022-10-11T00:26:25.478Z,96600.28
2022-10-11T00:28:53.041Z,96600.59
2022-10-11T00:31:19.857Z,96604.38
2022-10-11T00:33:46.617Z,96600.59
2022-10-11T00:36:15.838Z,96601.84
2022-10-11T00:38:45.723Z,96601.31
2022-10-11T00:41:12.727Z,96591.66
2022-10-11T00:43:40.018Z,96599.78
2022-10-11T00:46:26.091Z,96599.28
2022-10-11T00:49:07.294Z,96597.75
2022-10-11T00:51:58.225Z,96596.41
2022-10-11T00:54:28.738Z,96597.38
2022-10-11T00:57:02.586Z,96593.19
2022-10-11T00:59:34.782Z,96585.22
2022-10-11T01:02:01.563Z,96588.69
2022-10-11T01:04:28.680Z,96585.22
2022-10-11T01:06:55.881Z,96590.38
2022-10-11T01:09:22.598Z,96595.53
2022-10-11T01:11:52.241Z,96592.38
2022-10-11T01:14:33.949Z,96597.00
2022-10-11T01:17:08.127Z,96595.03
2022-10-11T01:20:05.328Z,96592.38
2022-10-11T01:22:50.692Z,96585.22
2022-10-11T01:25:34.490Z,96588.25
2022-10-11T01:28:28.247Z,96586.81
2022-10-11T01:31:01.455Z,96588.66
2022-10-11T01:33:40.449Z,96587.78
2022-10-11T01:36:32.733Z,96591.31
2022-10-11T01:39:02.291Z,96591.59
2022-10-11T01:41:35.081Z,96594.25
2022-10-11T01:44:02.598Z,96589.09
2022-10-11T01:46:30.586Z,96589.09
2022-10-11T01:49:00.828Z,96590.59
2022-10-11T01:51:34.696Z,96595.78
2022-10-11T01:54:24.935Z,96591.59
2022-10-11T01:57:03.696Z,96587.41
2022-10-11T01:59:55.978Z,96594.09
2022-10-11T02:02:43.691Z,96586.44
2022-10-11T02:05:20.606Z,96589.41
2022-10-11T02:07:58.662Z,96592.38
2022-10-11T02:10:45.049Z,96588.19
2022-10-11T02:13:35.444Z,96592.81
2022-10-11T02:16:07.099Z,96582.50
2022-10-11T02:18:38.073Z,96587.66
2022-10-11T02:21:08.827Z,96591.13
2022-10-11T02:23:42.013Z,96597.00
2022-10-11T02:26:12.252Z,96596.00
2022-10-11T02:28:42.663Z,96590.38
2022-10-11T02:31:11.992Z,96589.78
2022-10-11T02:33:58.967Z,96587.41
2022-10-11T02:36:31.937Z,96586.59
2022-10-11T02:39:03.895Z,96595.69
2022-10-11T02:41:36.132Z,96598.91
2022-10-11T02:44:09.569Z,96589.94
2022-10-11T02:46:38.016Z,96599.41
2022-10-11T02:49:04.930Z,96600.56
2022-10-11T02:51:31.874Z,96595.25
2022-10-11T02:53:58.647Z,96601.41
2022-10-11T02:56:25.395Z,96599.56
2022-10-11T02:58:52.029Z,96599.56
2022-10-11T03:01:18.739Z,96604.88
2022-10-11T03:03:45.413Z,96609.13
2022-10-11T03:06:12.004Z,96614.78
2022-10-11T03:08:38.790Z,96615.59
2022-10-11T03:11:05.426Z,96613.03
2022-10-11T03:13:32.136Z,96604.84
2022-10-11T03:16:03.198Z,96605.28
2022-10-11T03:18:31.166Z,96606.28
2022-10-11T03:20:57.808Z,96605.28
2022-10-11T03:23:24.403Z,96607.94
2022-10-11T03:25:52.215Z,96614.94
2022-10-11T03:28:19.479Z,96615.09
2022-10-11T03:30:50.487Z,96616.94
2022-10-11T03:33:17.545Z,96611.06
2022-10-11T03:35:48.544Z,96611.91
2022-10-11T03:38:18.761Z,96615.56
2022-10-11T03:40:45.630Z,96611.91
2022-10-11T03:43:12.723Z,96612.75
2022-10-11T03:45:42.423Z,96610.59
2022-10-11T03:48:09.863Z,96609.31
2022-10-11T03:50:37.218Z,96610.81
2022-10-11T03:53:05.507Z,96611.69
2022-10-11T03:55:32.352Z,96608.88
2022-10-11T03:57:58.964Z,96613.72
2022-10-11T04:00:25.615Z,96610.06
2022-10-11T04:02:52.262Z,96613.56
2022-10-11T04:05:18.908Z,96608.63
2022-10-11T04:07:45.492Z,96610.66
2022-10-11T04:10:12.166Z,96617.03
2022-10-11T04:12:39.310Z,96616.59
2022-10-11T04:15:07.522Z,96615.44
2022-10-11T04:17:34.475Z,96616.09
2022-10-11T04:20:01.105Z,96613.28
2022-10-11T04:22:27.733Z,96618.28
2022-10-11T04:24:54.386Z,96620.13
2022-10-11T04:27:21.204Z,96611.97
2022-10-11T04:29:47.971Z,96616.63
2022-10-11T04:32:14.959Z,96614.63
2022-10-11T04:34:42.099Z,96627.28
2022-10-11T04:37:08.739Z,96624.63
2022-10-11T04:39:35.402Z,96617.47
2022-10-11T04:42:02.037Z,96627.13
2022-10-11T04:44:28.724Z,96622.63
2022-10-11T04:46:55.389Z,96631.31
2022-10-11T04:49:22.272Z,96629.31
2022-10-11T04:51:48.965Z,96631.53
2022-10-11T04:54:16.089Z,96633.66
2022-10-11T04:56:42.767Z,96636.31
2022-10-11T04:59:09.583Z,96629.16
2022-10-11T05:01:36.362Z,96624.63
2022-10-11T05:04:03.408Z,96632.91
2022-10-11T05:06:30.198Z,96632.78
2022-10-11T05:08:56.878Z,96632.59
2022-10-11T05:11:23.533Z,96637.78
2022-10-11T05:13:50.298Z,96647.94
2022-10-11T05:16:17.522Z,96642.31
2022-10-11T05:18:44.684Z,96639.66
2022-10-11T05:21:31.718Z,96641.03
2022-10-11T05:23:58.609Z,96646.63
2022-10-11T05:26:27.807Z,96643.81
2022-10-11T05:28:54.801Z,96643.00
2022-10-11T05:31:21.896Z,96653.63
2022-10-11T05:33:48.937Z,96654.63
2022-10-11T05:36:15.707Z,96667.13
2022-10-11T05:38:42.469Z,96653.31
2022-10-11T05:41:10.429Z,96670.31
2022-10-11T05:43:37.248Z,96668.63
2022-10-11T05:46:04.242Z,96670.44
2022-10-11T05:48:31.130Z,96672.91
2022-10-11T05:51:03.230Z,96667.88
2022-10-11T05:53:29.932Z,96682.03
2022-10-11T05:55:56.710Z,96688.56
2022-10-11T05:58:23.608Z,96686.56
2022-10-11T06:00:50.285Z,96694.06
2022-10-11T06:03:17.569Z,96697.22
2022-10-11T06:05:44.242Z,96695.94
2022-10-11T06:08:11.171Z,96696.78
2022-10-11T06:10:39.058Z,96699.28
2022-10-11T06:13:06.648Z,96704.81
2022-10-11T06:15:34.409Z,96704.50
2022-10-11T06:18:01.165Z,96700.22
2022-10-11T06:20:27.908Z,96703.25
2022-10-11T06:22:54.678Z,96708.41
2022-10-11T06:25:21.316Z,96717.28
2022-10-11T06:27:48.011Z,96718.09
2022-10-11T06:30:15.303Z,96718.84
2022-10-11T06:32:41.904Z,96722.38
2022-10-11T06:35:08.901Z,96728.84
2022-10-11T06:37:36.123Z,96726.72
2022-10-11T06:40:02.850Z,96727.31
2022-10-11T06:42:29.469Z,96727.50
2022-10-11T06:44:56.086Z,96729.72
2022-10-11T06:47:22.882Z,96729.97
2022-10-11T06:49:49.565Z,96726.38
2022-10-11T06:52:16.211Z,96726.25
2022-10-11T06:54:45.085Z,96734.81
2022-10-11T06:57:12.116Z,96736.75
2022-10-11T06:59:39.087Z,96730.72
2022-10-11T07:02:05.751Z,96730.34
2022-10-11T07:04:33.936Z,96723.84
2022-10-11T07:07:00.830Z,96723.75
2022-10-11T07:09:27.413Z,96715.63
2022-10-11T07:11:54.100Z,96717.84
2022-10-11T07:14:20.799Z,96722.91
2022-10-11T07:16:47.432Z,96711.72
2022-10-11T07:19:14.027Z,96718.13
2022-10-11T07:21:40.729Z,96724.41
2022-10-11T07:24:07.694Z,96721.44
2022-10-11T07:26:38.265Z,96728.69
2022-10-11T07:29:07.194Z,96721.81
2022-10-11T07:31:33.940Z,96730.50
2022-10-11T07:34:00.626Z,96740.41
2022-10-11T07:36:27.304Z,96739.94
2022-10-11T07:38:54.163Z,96737.34
2022-10-11T07:41:21.192Z,96740.41
2022-10-11T07:43:49.665Z,96744.47
2022-10-11T07:46:18.088Z,96747.63
2022-10-11T07:48:44.868Z,96743.66
2022-10-11T07:51:17.892Z,96746.41
2022-10-11T07:53:55.507Z,96751.47
2022-10-11T07:56:27.905Z,96760.91
2022-10-11T07:58:59.963Z,96766.91
2022-10-11T08:01:28.224Z,96760.59
2022-10-11T08:03:54.973Z,96766.34
2022-10-11T08:06:24.596Z,96763.09
2022-10-11T08:08:51.298Z,96756.75
2022-10-11T08:11:29.857Z,96757.38
2022-10-11T08:13:58.046Z,96748.97
2022-10-11T08:16:25.486Z,96747.94
2022-10-11T08:18:52.113Z,96744.06
2022-10-11T08:21:19.215Z,96751.34
2022-10-11T08:23:46.170Z,96751.78
2022-10-11T08:26:12.907Z,96741.09
2022-10-11T08:28:39.612Z,96743.09
2022-10-11T08:31:06.772Z,96740.50
2022-10-11T08:33:33.457Z,96741.31
2022-10-11T08:36:05.826Z,96746.72
2022-10-11T08:38:33.294Z,96756.25
2022-10-11T08:41:00.997Z,96754.97
2022-10-11T08:43:56.582Z,96750.63
2022-10-11T08:46:26.755Z,96753.34
2022-10-11T08:48:54.442Z,96756.00
2022-10-11T08:51:27.746Z,96752.47
2022-10-11T08:54:03.512Z,96757.44
2022-10-11T08:56:38.863Z,96753.72
2022-10-11T08:59:11.323Z,96752.25
2022-10-11T09:01:46.530Z,96748.22
2022-10-11T09:04:17.919Z,96744.47
2022-10-11T09:06:53.814Z,96751.31
2022-10-11T09:09:44.153Z,96757.28
2022-10-11T09:12:19.823Z,96753.28
2022-10-11T09:15:03.734Z,96746.50
2022-10-11T09:18:06.886Z,96746.28
2022-10-11T09:21:08.353Z,96742.53
2022-10-11T09:23:53.571Z,96748.97
2022-10-11T09:26:20.078Z,96745.03
2022-10-11T09:29:16.075Z,96750.84
2022-10-11T09:31:48.403Z,96754.34
2022-10-11T09:34:15.771Z,96747.72
2022-10-11T09:36:55.311Z,96746.13
2022-10-11T09:39:33.171Z,96742.28
2022-10-11T09:42:08.725Z,96748.94
2022-10-11T09:44:41.496Z,96748.53
2022-10-11T09:47:15.491Z,96741.72
2022-10-11T09:49:56.731Z,96742.34
2022-10-11T09:52:25.200Z,96744.25
2022-10-11T09:54:57.212Z,96736.53
2022-10-11T09:57:39.581Z,96734.66
2022-10-11T10:00:06.353Z,96738.38
2022-10-11T10:02:48.989Z,96738.28
2022-10-11T10:05:24.035Z,96744.91
2022-10-11T10:08:05.112Z,96741.53
2022-10-11T10:10:38.652Z,96736.94
2022-10-11T10:13:16.266Z,96738.59
2022-10-11T10:15:46.574Z,96744.56
2022-10-11T10:18:30.961Z,96744.50
2022-10-11T10:20:59.974Z,96735.63
2022-10-11T10:23:29.815Z,96738.69
2022-10-11T10:26:22.284Z,96730.25
2022-10-11T10:28:56.665Z,96732.16
2022-10-11T10:31:49.514Z,96724.41
2022-10-11T10:34:30.163Z,96726.97
2022-10-11T10:37:19.631Z,96727.78
2022-10-11T10:39:55.020Z,96720.78
2022-10-11T10:42:21.934Z,96723.56
2022-10-11T10:44:57.048Z,96725.72
2022-10-11T10:47:52.668Z,96726.75
2022-10-11T10:50:26.579Z,96717.28
2022-10-11T10:53:17.469Z,96721.91
2022-10-11T10:55:47.433Z,96726.63
2022-10-11T10:58:32.819Z,96723.75
2022-10-11T11:01:22.707Z,96720.25
2022-10-11T11:03:52.506Z,96723.13
2022-10-11T11:06:29.718Z,96718.28
2022-10-11T11:09:03.918Z,96723.63
2022-10-11T11:11:45.054Z,96717.63
2022-10-11T11:14:18.794Z,96716.09
2022-10-11T11:17:07.910Z,96719.19
2022-10-11T11:19:56.134Z,96719.38
2022-10-11T11:22:32.487Z,96710.00
2022-10-11T11:25:05.074Z,96708.09
2022-10-11T11:27:44.324Z,96714.59
2022-10-11T11:30:34.116Z,96716.53
2022-10-11T11:33:00.678Z,96709.63
2022-10-11T11:35:39.828Z,96705.47
2022-10-11T11:38:34.048Z,96698.84
2022-10-11T11:41:05.351Z,96700.78
2022-10-11T11:43:39.989Z,96696.59
2022-10-11T11:46:16.262Z,96694.47
2022-10-11T11:48:44.065Z,96695.38
2022-10-11T11:51:20.637Z,96689.38
2022-10-11T11:54:09.344Z,96684.22
2022-10-11T11:56:42.113Z,96686.34
2022-10-11T11:59:14.464Z,96686.78
2022-10-11T12:01:57.901Z,96681.56
2022-10-11T12:04:36.039Z,96684.28
2022-10-11T12:07:24.974Z,96670.19
2022-10-11T12:09:55.054Z,96675.78
2022-10-11T12:12:34.392Z,96676.03
2022-10-11T12:15:10.095Z,96674.38
2022-10-11T12:17:57.371Z,96664.84
2022-10-11T12:20:40.965Z,96668.00
2022-10-11T12:23:29.427Z,96679.44
2022-10-11T12:26:28.105Z,96675.22
2022-10-11T12:29:27.461Z,96673.19
2022-10-11T12:32:01.363Z,96678.63
2022-10-11T12:34:42.585Z,96677.16
2022-10-11T12:37:32.386Z,96670.31
2022-10-11T12:40:00.448Z,96673.00
2022-10-11T12:42:33.820Z,96669.06
2022-10-11T12:45:13.048Z,96673.66
2022-10-11T12:47:53.056Z,96673.00
2022-10-11T12:50:42.757Z,96665.56
2022-10-11T12:53:21.888Z,96668.69
2022-10-11T12:55:48.532Z,96667.63
2022-10-11T12:58:17.830Z,96670.97
2022-10-11T13:01:05.076Z,96663.72
2022-10-11T13:03:50.878Z,96676.16
2022-10-11T13:06:25.126Z,96672.84
2022-10-11T13:09:02.000Z,96669.94
2022-10-11T13:11:32.766Z,96672.63
2022-10-11T13:14:10.175Z,96678.63
2022-10-11T13:16:46.317Z,96671.38
2022-10-11T13:19:14.768Z,96672.00
2022-10-11T13:21:42.014Z,96675.31
2022-10-11T13:24:19.405Z,96671.56
2022-10-11T13:26:49.086Z,96674.81
2022-10-11T13:29:39.495Z,96676.25
2022-10-11T13:32:12.589Z,96683.03
2022-10-11T13:34:41.786Z,96681.59
2022-10-11T13:37:16.465Z,96676.19
2022-10-11T13:39:43.242Z,96678.03
2022-10-11T13:42:14.148Z,96681.19
2022-10-11T13:44:42.575Z,96681.41
2022-10-11T13:47:18.715Z,96683.66
2022-10-11T13:49:50.465Z,96684.47
2022-10-11T13:52:22.055Z,96687.13
2022-10-11T13:55:03.922Z,96685.66
2022-10-11T13:57:49.496Z,96682.13
2022-10-11T14:00:16.536Z,96683.22
2022-10-11T14:02:58.159Z,96678.47
2022-10-11T14:05:39.047Z,96682.41
2022-10-11T14:08:26.177Z,96686.75
2022-10-11T14:10:57.231Z,96679.66
2022-10-11T14:13:30.185Z,96685.03
2022-10-11T14:16:06.214Z,96675.53
2022-10-11T14:19:03.132Z,96680.28
2022-10-11T14:21:51.300Z,96686.06
2022-10-11T14:24:19.183Z,96687.34
2022-10-11T14:26:51.851Z,96685.88
2022-10-11T14:29:28.599Z,96687.50
2022-10-11T14:32:05.063Z,96683.00
2022-10-11T14:34:32.878Z,96680.28
2022-10-11T14:36:59.539Z,96679.38
2022-10-11T14:39:28.207Z,96686.63
2022-10-11T14:41:54.995Z,96687.00
2022-10-11T14:44:22.434Z,96682.41
2022-10-11T14:46:54.052Z,96686.13
2022-10-11T14:49:25.283Z,96685.66
2022-10-11T14:51:54.074Z,96684.66
2022-10-11T14:54:23.576Z,96687.72
2022-10-11T14:56:52.176Z,96693.03
2022-10-11T14:59:22.220Z,96690.28
2022-10-11T15:01:53.955Z,96695.22
2022-10-11T15:04:26.407Z,96694.22
2022-10-11T15:06:54.912Z,96694.47
2022-10-11T15:09:22.574Z,96703.75
2022-10-11T15:11:50.487Z,96702.13
2022-10-11T15:14:17.509Z,96705.63
2022-10-11T15:16:44.541Z,96706.03
2022-10-11T15:19:22.972Z,96707.06
2022-10-11T15:21:49.805Z,96703.97
2022-10-11T15:24:19.991Z,96700.31
2022-10-11T15:26:47.716Z,96705.88
2022-10-11T15:29:17.619Z,96709.84
2022-10-11T15:31:45.878Z,96710.44
2022-10-11T15:34:12.581Z,96707.94
2022-10-11T15:36:39.268Z,96712.69
2022-10-11T15:39:23.530Z,96714.09
2022-10-11T15:41:50.343Z,96718.84
2022-10-11T15:44:17.039Z,96720.50
2022-10-11T15:46:43.922Z,96722.19
2022-10-11T15:49:14.334Z,96728.50
2022-10-11T15:51:41.271Z,96737.78
2022-10-11T15:54:08.053Z,96741.28
2022-10-11T15:56:34.788Z,96739.75
2022-10-11T15:59:02.074Z,96746.06
2022-10-11T16:01:28.779Z,96749.59
2022-10-11T16:03:55.529Z,96754.78
2022-10-11T16:06:22.177Z,96753.94
2022-10-11T16:08:48.867Z,96758.50
2022-10-11T16:11:15.856Z,96763.69
2022-10-11T16:13:42.534Z,96779.53
2022-10-11T16:16:11.310Z,96780.13
2022-10-11T16:18:38.237Z,96783.28
2022-10-11T16:21:11.116Z,96791.28
2022-10-11T16:23:38.805Z,96790.72
2022-10-11T16:26:08.189Z,96782.31
2022-10-11T16:28:35.784Z,96784.75
2022-10-11T16:31:14.795Z,96790.88
2022-10-11T16:33:47.887Z,96788.19
2022-10-11T16:36:31.846Z,96790.59
2022-10-11T16:38:59.523Z,96789.59
2022-10-11T16:41:26.195Z,96798.63
2022-10-11T16:43:55.055Z,96797.88
2022-10-11T16:46:22.596Z,96807.88
2022-10-11T16:48:49.377Z,96809.06
2022-10-11T16:51:16.050Z,96810.16
2022-10-11T16:53:42.672Z,96819.75
2022-10-11T16:56:11.483Z,96820.47
2022-10-11T16:58:38.273Z,96831.06
2022-10-11T17:01:10.293Z,96833.06
2022-10-11T17:03:37.668Z,96839.97
2022-10-11T17:06:05.578Z,96837.13
2022-10-11T17:08:32.623Z,96834.63
2022-10-11T17:10:59.371Z,96849.03
2022-10-11T17:13:26.486Z,96847.00
2022-10-11T17:15:53.245Z,96849.09
2022-10-11T17:18:19.865Z,96845.50
2022-10-11T17:20:46.679Z,96849.53
2022-10-11T17:23:13.383Z,96853.72
2022-10-11T17:25:44.889Z,96853.34
2022-10-11T17:28:12.426Z,96856.69
2022-10-11T17:30:41.808Z,96855.91
2022-10-11T17:33:09.164Z,96856.56
2022-10-11T17:35:35.912Z,96860.06
2022-10-11T17:38:06.176Z,96859.75
2022-10-11T17:40:33.205Z,96861.09
2022-10-11T17:42:59.927Z,96856.25
2022-10-11T17:45:26.669Z,96852.75
2022-10-11T17:47:53.268Z,96853.94
2022-10-11T17:50:20.085Z,96861.47
2022-10-11T17:52:46.734Z,96868.88
2022-10-11T17:55:13.786Z,96857.28
2022-10-11T17:57:40.584Z,96862.19
2022-10-11T18:00:08.018Z,96868.53
2022-10-11T18:02:34.677Z,96862.50
2022-10-11T18:05:01.358Z,96858.50
2022-10-11T18:07:27.961Z,96868.91
2022-10-11T18:09:54.664Z,96868.63
2022-10-11T18:12:21.322Z,96865.63
2022-10-11T18:14:48.036Z,96870.28
2022-10-11T18:17:14.667Z,96873.00
2022-10-11T18:19:41.442Z,96869.34
2022-10-11T18:22:08.375Z,96873.72
2022-10-11T18:24:35.093Z,96872.69
2022-10-11T18:27:02.239Z,96870.69
2022-10-11T18:29:28.903Z,96864.16
2022-10-11T18:31:55.604Z,96873.34
2022-10-11T18:34:22.284Z,96872.00
2022-10-11T18:36:48.931Z,96863.97
2022-10-11T18:39:15.807Z,96860.97
2022-10-11T18:41:44.657Z,96863.28
2022-10-11T18:44:14.466Z,96861.28
2022-10-11T18:46:41.655Z,96868.31
2022-10-11T18:49:08.882Z,96864.78
2022-10-11T18:51:41.257Z,96869.66
2022-10-11T18:54:12.090Z,96875.88
2022-10-11T18:56:40.756Z,96864.50
2022-10-11T18:59:08.062Z,96867.84
2022-10-11T19:01:38.332Z,96873.69
2022-10-11T19:04:06.763Z,96872.34
2022-10-11T19:06:40.061Z,96873.00
2022-10-11T19:09:10.299Z,96871.81
2022-10-11T19:11:37.871Z,96870.00
2022-10-11T19:14:16.161Z,96869.66
2022-10-11T19:16:46.326Z,96873.16
2022-10-11T19:19:13.146Z,96867.16
2022-10-11T19:21:40.219Z,96864.47
2022-10-11T19:24:07.391Z,96866.47
2022-10-11T19:26:36.751Z,96872.50
2022-10-11T19:29:15.462Z,96869.66
2022-10-11T19:31:48.641Z,96870.00
2022-10-11T19:34:15.969Z,96871.81
2022-10-11T19:36:42.936Z,96871.19
2022-10-11T19:39:17.827Z,96876.53
2022-10-11T19:41:44.549Z,96870.66
2022-10-11T19:44:12.366Z,96870.72
2022-10-11T19:46:54.877Z,96876.38
2022-10-11T19:49:25.116Z,96876.06
2022-10-11T19:51:53.825Z,96886.44
2022-10-11T19:54:20.532Z,96882.25
2022-10-11T19:56:47.829Z,96878.41
2022-10-11T19:59:15.017Z,96880.25
2022-10-11T20:01:42.253Z,96880.06
2022-10-11T20:04:22.926Z,96884.75
2022-10-11T20:06:58.111Z,96887.28
2022-10-11T20:09:29.402Z,96887.44
2022-10-11T20:11:56.564Z,96878.91
2022-10-11T20:14:23.384Z,96877.75
2022-10-11T20:16:50.861Z,96880.06
2022-10-11T20:19:17.641Z,96892.94
2022-10-11T20:21:45.176Z,96883.09
2022-10-11T20:24:11.973Z,96878.22
2022-10-11T20:26:39.399Z,96884.44
2022-10-11T20:29:06.303Z,96882.41
2022-10-11T20:31:38.190Z,96886.59
2022-10-11T20:34:07.456Z,96881.06
2022-10-11T20:36:36.136Z,96877.41
2022-10-11T20:39:04.884Z,96885.25
2022-10-11T20:41:34.702Z,96884.91
2022-10-11T20:44:02.932Z,96887.09
2022-10-11T20:46:35.166Z,96885.91
2022-10-11T20:49:05.113Z,96886.72
2022-10-11T20:51:33.775Z,96887.41
2022-10-11T20:54:02.150Z,96887.56
2022-10-11T20:56:29.993Z,96884.56
2022-10-11T20:58:58.212Z,96893.41
2022-10-11T21:01:28.480Z,96892.59
2022-10-11T21:03:57.951Z,96894.25
2022-10-11T21:06:25.124Z,96896.59
2022-10-11T21:08:51.797Z,96894.41
2022-10-11T21:11:18.416Z,96888.72
2022-10-11T21:13:45.133Z,96893.25
2022-10-11T21:16:16.223Z,96890.06
2022-10-11T21:18:43.136Z,96889.09
2022-10-11T21:21:14.503Z,96876.72
2022-10-11T21:23:41.646Z,96889.44
2022-10-11T21:26:10.297Z,96884.41
2022-10-11T21:28:37.615Z,96885.44
2022-10-11T21:31:09.958Z,96886.44
2022-10-11T21:33:37.238Z,96892.44
2022-10-11T21:36:08.952Z,96891.78
2022-10-11T21:38:36.547Z,96892.31
2022-10-11T21:41:11.608Z,96891.63
2022-10-11T21:43:38.631Z,96887.44
2022-10-11T21:46:14.268Z,96888.44
2022-10-11T21:48:41.000Z,96892.78
2022-10-11T21:53:39.120Z,96888.94
2022-10-11T21:56:05.972Z,96890.28
2022-10-11T21:58:32.618Z,96888.63
2022-10-11T22:00:59.721Z,96894.66
2022-10-11T22:03:26.988Z,96899.16
2022-10-11T22:05:53.663Z,96896.47
2022-10-11T22:08:20.476Z,96897.34
2022-10-11T22:10:54.463Z,96903.19
2022-10-11T22:13:21.144Z,96893.00
2022-10-11T22:15:47.932Z,96898.84
2022-10-11T22:18:14.605Z,96900.16
2022-10-11T22:20:41.471Z,96898.19
2022-10-11T22:23:08.235Z,96898.34
2022-10-11T22:25:36.105Z,96892.47
2022-10-11T22:28:03.592Z,96892.47
2022-10-11T22:30:31.014Z,96889.31
2022-10-11T22:32:57.804Z,96880.13
2022-10-11T22:35:24.676Z,96884.44
2022-10-11T22:37:51.927Z,96882.78
2022-10-11T22:40:19.689Z,96882.63
2022-10-11T22:42:46.440Z,96889.47
2022-10-11T22:45:13.114Z,96889.34
2022-10-11T22:47:39.796Z,96885.31
2022-10-11T22:50:06.698Z,96888.63
2022-10-11T22:52:33.367Z,96886.13
2022-10-11T22:55:00.041Z,96883.28
2022-10-11T22:57:26.680Z,96889.16
2022-10-11T22:59:53.354Z,96885.63
2022-10-11T23:02:20.027Z,96885.81
2022-10-11T23:04:46.720Z,96880.09
2022-10-11T23:07:13.372Z,96886.97
2022-10-11T23:09:40.003Z,96888.63
2022-10-11T23:12:07.043Z,96887.28
2022-10-11T23:14:33.669Z,96890.81
2022-10-11T23:17:00.330Z,96889.81
2022-10-11T23:19:27.014Z,96897.00
2022-10-11T23:21:53.695Z,96893.47
2022-10-11T23:24:20.412Z,96895.66
2022-10-11T23:26:47.148Z,96903.34
2022-10-11T23:29:13.815Z,96901.84
2022-10-11T23:31:40.447Z,96910.88
2022-10-11T23:34:07.356Z,96905.19
2022-10-11T23:36:34.076Z,96905.69
2022-10-11T23:39:00.759Z,96909.22
2022-10-11T23:41:29.127Z,96914.22
2022-10-11T23:43:56.173Z,96914.75
2022-10-11T23:46:23.285Z,96910.38
2022-10-11T23:48:50.060Z,96918.06
2022-10-11T23:51:16.739Z,96916.09
2022-10-11T23:53:43.524Z,96911.38
2022-10-11T23:56:11.317Z,96918.25
2022-10-11T23:58:38.220Z,96912.88
